Time;durP1;ratioP1;P1;durP2;ratioP2;P2;SDS_P1;SDS_P2;PMS_P1;PMS_P2;Temp;Humidity;BMP_temperature;BMP_pressure;BME280_temperature;BME280_humidity;BME280_pressure;Samples;Min_cycle;Max_cycle;Signal;HPM_P1;HPM_P2
2022/10/17 00:02:14;;;;;;;3.55;2.40;;;11.00;99.90;;;;;;5075767;28;20308;-47
2022/10/17 00:04:40;;;;;;;7.50;2.88;;;11.00;99.90;;;;;;5096478;28;20028;-47
2022/10/17 00:07:05;;;;;;;7.22;3.33;;;11.10;99.90;;;;;;5072922;28;20133;-46
2022/10/17 00:09:31;;;;;;;8.40;3.38;;;11.10;99.90;;;;;;5090970;28;20051;-49
2022/10/17 00:11:56;;;;;;;5.55;3.00;;;11.10;99.90;;;;;;5084777;28;20032;-50
2022/10/17 00:14:21;;;;;;;4.05;3.10;;;11.20;99.90;;;;;;5084992;28;20039;-49
2022/10/17 00:16:47;;;;;;;6.47;3.10;;;11.20;99.90;;;;;;5106851;28;20407;-48
2022/10/17 00:19:12;;;;;;;7.22;3.20;;;11.30;99.90;;;;;;5091125;28;20055;-49
2022/10/17 00:21:38;;;;;;;7.40;3.20;;;11.30;99.90;;;;;;5109301;28;20561;-47
2022/10/17 00:24:04;;;;;;;5.10;2.97;;;11.30;99.90;;;;;;5092868;28;20028;-47
2022/10/17 00:26:29;;;;;;;4.07;3.05;;;11.40;99.90;;;;;;5110453;28;20042;-52
2022/10/17 00:28:55;;;;;;;5.35;2.92;;;11.40;99.90;;;;;;5113019;28;20100;-49
2022/10/17 00:31:22;;;;;;;6.22;2.88;;;11.40;99.90;;;;;;5096896;28;20024;-46
2022/10/17 00:33:48;;;;;;;4.43;3.15;;;11.40;99.90;;;;;;5113298;28;20459;-49
2022/10/17 00:36:17;;;;;;;5.88;3.03;;;11.50;99.90;;;;;;5095636;28;20032;-48
2022/10/17 00:38:45;;;;;;;3.60;2.85;;;11.50;99.90;;;;;;5112642;28;20190;-47
2022/10/17 00:41:13;;;;;;;7.15;2.72;;;11.50;99.90;;;;;;5094490;28;20019;-50
2022/10/17 00:44:10;;;;;;;5.72;2.53;;;11.50;99.90;;;;;;5112768;28;20031;-47
2022/10/17 00:46:37;;;;;;;5.30;3.03;;;11.50;99.90;;;;;;5084808;28;20024;-49
2022/10/17 00:49:08;;;;;;;4.25;2.45;;;11.50;99.90;;;;;;5112785;28;20038;-48
2022/10/17 00:51:44;;;;;;;7.05;2.97;;;11.50;99.90;;;;;;5097354;28;20241;-47
2022/10/17 00:54:12;;;;;;;6.88;2.08;;;11.50;99.90;;;;;;5092045;28;20555;-49
2022/10/17 00:56:39;;;;;;;3.03;2.03;;;11.50;99.90;;;;;;5110156;28;20112;-50
2022/10/17 00:59:07;;;;;;;8.13;2.38;;;11.40;99.90;;;;;;5112305;28;20111;-48
2022/10/17 01:01:33;;;;;;;4.32;2.53;;;11.40;99.90;;;;;;5096852;28;20507;-48
2022/10/17 01:03:59;;;;;;;4.95;2.40;;;11.40;99.90;;;;;;5112487;28;20062;-48
2022/10/17 01:06:24;;;;;;;5.78;2.47;;;11.30;99.90;;;;;;5089995;28;20056;-49
2022/10/17 01:08:50;;;;;;;4.32;2.30;;;11.20;99.90;;;;;;5111521;28;20036;-49
2022/10/17 01:11:32;;;;;;;2.47;2.08;;;11.20;99.90;;;;;;5094175;28;20031;-47
2022/10/17 01:14:10;;;;;;;5.57;2.40;;;11.20;99.90;;;;;;5112270;28;20023;-50
2022/10/17 01:17:06;;;;;;;6.10;2.30;;;11.20;99.90;;;;;;5082509;28;20028;-51
2022/10/17 01:20:18;;;;;;;1.95;1.75;;;11.30;99.90;;;;;;5071418;28;20112;-49
2022/10/17 01:22:55;;;;;;;3.85;2.22;;;11.30;99.90;;;;;;5084614;28;20404;-53
2022/10/17 01:25:56;;;;;;;7.32;2.30;;;11.30;99.90;;;;;;5071548;28;20173;-49
2022/10/17 01:28:40;;;;;;;4.32;2.50;;;11.40;99.90;;;;;;5093926;28;20130;-47
2022/10/17 01:31:12;;;;;;;3.78;2.60;;;11.40;99.90;;;;;;5073022;28;20029;-47
2022/10/17 01:34:15;;;;;;;5.18;3.13;;;11.40;99.90;;;;;;5110555;28;20661;-50
2022/10/17 01:36:59;;;;;;;4.38;2.53;;;11.40;99.90;;;;;;5100096;28;20046;-47
2022/10/17 01:39:38;;;;;;;7.13;2.83;;;11.40;99.90;;;;;;5110887;28;20028;-51
2022/10/17 01:42:20;;;;;;;6.40;2.47;;;11.50;99.90;;;;;;5088771;28;20042;-52
2022/10/17 01:45:00;;;;;;;2.67;2.08;;;11.50;99.90;;;;;;5069806;28;20025;-49
2022/10/17 01:47:29;;;;;;;6.38;2.95;;;11.50;99.90;;;;;;5081893;28;20043;-52
2022/10/17 01:50:01;;;;;;;3.80;2.85;;;11.50;99.90;;;;;;5111295;28;20495;-52
2022/10/17 01:52:32;;;;;;;6.05;2.38;;;11.40;99.90;;;;;;5081817;28;20032;-50
2022/10/17 01:55:06;;;;;;;4.20;2.70;;;11.30;99.90;;;;;;5070859;28;20033;-50
2022/10/17 01:57:39;;;;;;;5.78;2.88;;;11.20;99.90;;;;;;5082096;28;20020;-49
2022/10/17 02:00:10;;;;;;;3.20;2.67;;;11.10;99.90;;;;;;5069526;28;20029;-47
2022/10/17 02:02:36;;;;;;;3.10;2.53;;;11.10;99.90;;;;;;5081581;28;20040;-48
2022/10/17 02:05:02;;;;;;;2.92;2.58;;;11.10;99.90;;;;;;5110227;28;20023;-49
2022/10/17 02:07:28;;;;;;;4.85;2.70;;;11.00;99.90;;;;;;5085945;28;20036;-46
2022/10/17 02:09:54;;;;;;;4.45;2.60;;;11.00;99.90;;;;;;5109840;28;20383;-49
2022/10/17 02:12:28;;;;;;;4.15;2.60;;;11.00;99.90;;;;;;5089376;28;20024;-50
2022/10/17 02:15:26;;;;;;;2.97;2.45;;;10.90;99.90;;;;;;5070469;28;20116;-48
2022/10/17 02:18:28;;;;;;;8.40;3.03;;;10.90;99.90;;;;;;5084395;28;20044;-50
2022/10/17 02:21:01;;;;;;;3.40;2.70;;;10.80;99.90;;;;;;5110108;28;20044;-47
2022/10/17 02:24:06;;;;;;;6.00;2.72;;;10.80;99.90;;;;;;5070289;28;20028;-47
2022/10/17 02:26:44;;;;;;;2.88;2.30;;;10.70;99.90;;;;;;5088013;28;20066;-48
2022/10/17 02:29:24;;;;;;;4.95;2.88;;;10.70;99.90;;;;;;5110486;28;20027;-47
2022/10/17 02:32:10;;;;;;;6.55;2.67;;;10.70;99.90;;;;;;5080903;28;20031;-49
2022/10/17 02:34:49;;;;;;;5.10;3.37;;;10.70;99.90;;;;;;5069900;28;20366;-50
2022/10/17 02:37:19;;;;;;;6.38;2.90;;;10.70;99.90;;;;;;5087496;28;20452;-48
2022/10/17 02:39:46;;;;;;;4.25;2.60;;;10.60;99.90;;;;;;5090011;28;20036;-50
2022/10/17 02:42:13;;;;;;;6.20;3.15;;;10.70;99.90;;;;;;5107945;28;20027;-48
2022/10/17 02:44:42;;;;;;;4.40;2.50;;;10.60;99.90;;;;;;5090434;28;20278;-49
2022/10/17 02:47:11;;;;;;;3.85;2.50;;;10.60;99.90;;;;;;5108206;28;20093;-47
2022/10/17 02:49:40;;;;;;;5.00;2.50;;;10.60;99.90;;;;;;5090047;28;20115;-47
2022/10/17 02:52:14;;;;;;;2.90;2.40;;;10.60;99.90;;;;;;5108083;28;20028;-47
2022/10/17 02:54:46;;;;;;;5.40;2.45;;;10.60;99.90;;;;;;5069694;28;20029;-52
2022/10/17 02:57:38;;;;;;;4.03;2.72;;;10.60;99.90;;;;;;5085359;28;20488;-49
2022/10/17 03:00:07;;;;;;;3.10;2.60;;;10.70;99.90;;;;;;5069421;28;20064;-47
2022/10/17 03:02:45;;;;;;;4.00;2.50;;;10.70;99.90;;;;;;5107629;28;20040;-47
2022/10/17 03:05:13;;;;;;;3.53;2.85;;;10.80;99.90;;;;;;5069496;28;20515;-47
2022/10/17 03:07:39;;;;;;;5.35;3.10;;;11.00;99.90;;;;;;5091818;28;20450;-49
2022/10/17 03:10:05;;;;;;;7.60;3.15;;;11.10;99.90;;;;;;5109240;28;20099;-51
2022/10/17 03:12:30;;;;;;;5.68;2.78;;;11.10;99.90;;;;;;5099334;28;20111;-50
2022/10/17 03:14:56;;;;;;;3.40;3.10;;;11.10;99.90;;;;;;5089974;28;20051;-47
2022/10/17 03:17:21;;;;;;;3.92;2.88;;;11.20;99.90;;;;;;5106916;28;20043;-46
2022/10/17 03:19:47;;;;;;;4.28;2.90;;;11.30;99.90;;;;;;5089827;28;20043;-50
2022/10/17 03:22:12;;;;;;;3.85;3.42;;;11.40;99.90;;;;;;5106950;28;20032;-47
2022/10/17 03:24:38;;;;;;;7.90;3.60;;;11.60;99.90;;;;;;5089800;28;20028;-47
2022/10/17 03:27:03;;;;;;;6.85;4.18;;;11.70;99.90;;;;;;5107009;28;20024;-51
2022/10/17 03:29:29;;;;;;;7.18;4.30;;;11.80;99.90;;;;;;5106869;28;20020;-50
2022/10/17 03:31:54;;;;;;;3.83;3.42;;;11.90;99.90;;;;;;5093546;28;20035;-46
2022/10/17 03:34:20;;;;;;;4.68;3.80;;;11.90;99.90;;;;;;5097796;28;20028;-47
2022/10/17 03:36:46;;;;;;;4.28;3.78;;;12.00;99.90;;;;;;5091052;28;20430;-46
2022/10/17 03:39:11;;;;;;;6.38;4.45;;;12.00;99.90;;;;;;5109482;28;20032;-52
2022/10/17 03:41:37;;;;;;;5.60;4.25;;;12.00;99.90;;;;;;5090465;28;20062;-46
2022/10/17 03:44:02;;;;;;;5.47;4.57;;;12.10;99.90;;;;;;5109623;28;20067;-46
2022/10/17 03:46:28;;;;;;;4.45;3.35;;;12.10;99.90;;;;;;5088598;28;20564;-48
2022/10/17 03:48:53;;;;;;;7.75;4.70;;;12.10;99.90;;;;;;5109480;28;20032;-46
2022/10/17 03:51:19;;;;;;;3.78;3.17;;;12.10;99.90;;;;;;5089738;28;20051;-51
2022/10/17 03:53:44;;;;;;;5.63;4.65;;;12.10;99.90;;;;;;5109152;28;20088;-48
2022/10/17 03:56:20;;;;;;;7.78;4.20;;;12.20;99.90;;;;;;5089679;28;20024;-48
2022/10/17 03:58:46;;;;;;;6.18;4.00;;;12.20;99.90;;;;;;5068740;28;20041;-47
2022/10/17 04:01:13;;;;;;;5.45;4.32;;;12.20;99.90;;;;;;5108000;28;20529;-46
2022/10/17 04:03:39;;;;;;;7.85;4.18;;;12.20;99.90;;;;;;5087429;28;20020;-48
2022/10/17 04:06:05;;;;;;;5.13;4.47;;;12.40;99.90;;;;;;5107470;28;20109;-47
2022/10/17 04:08:32;;;;;;;8.82;4.00;;;12.30;99.90;;;;;;5087607;28;20039;-48
2022/10/17 04:11:07;;;;;;;8.15;4.20;;;12.40;99.90;;;;;;5108920;28;20489;-46
2022/10/17 04:13:33;;;;;;;6.95;5.68;;;12.40;99.90;;;;;;5084913;28;20503;-47
2022/10/17 04:16:03;;;;;;;7.88;4.97;;;12.40;99.90;;;;;;5108612;28;20042;-48
2022/10/17 04:18:29;;;;;;;7.78;4.88;;;12.50;99.90;;;;;;5084591;28;20040;-48
2022/10/17 04:20:55;;;;;;;6.22;5.50;;;12.50;99.90;;;;;;5108595;28;20031;-46
2022/10/17 04:23:21;;;;;;;7.70;4.47;;;12.60;99.90;;;;;;5087439;28;20073;-46
2022/10/17 04:25:46;;;;;;;6.40;4.88;;;12.50;99.90;;;;;;5108377;28;20027;-50
2022/10/17 04:28:12;;;;;;;7.70;5.88;;;12.60;99.90;;;;;;5087814;28;20035;-49
2022/10/17 04:30:38;;;;;;;9.70;6.07;;;12.60;99.90;;;;;;5108602;28;20027;-47
2022/10/17 04:33:03;;;;;;;8.07;6.18;;;12.70;99.90;;;;;;5087572;28;20095;-49
2022/10/17 04:35:29;;;;;;;9.15;6.93;;;12.70;99.90;;;;;;5085682;28;20115;-49
2022/10/17 04:37:54;;;;;;;8.75;7.05;;;12.70;99.90;;;;;;5094012;28;20458;-48
2022/10/17 04:40:20;;;;;;;7.78;6.32;;;12.70;99.90;;;;;;5108067;28;20110;-49
2022/10/17 04:42:46;;;;;;;7.72;6.65;;;12.60;99.90;;;;;;5097750;28;20070;-49
2022/10/17 04:45:12;;;;;;;9.43;6.63;;;12.70;99.90;;;;;;5088943;28;20028;-47
2022/10/17 04:47:37;;;;;;;8.95;6.78;;;12.70;99.90;;;;;;5088967;28;20036;-51
2022/10/17 04:50:04;;;;;;;8.82;6.38;;;12.70;99.90;;;;;;5108160;28;20417;-52
2022/10/17 04:52:30;;;;;;;11.60;7.40;;;12.60;99.90;;;;;;5095137;28;20400;-47
2022/10/17 04:54:56;;;;;;;7.28;6.25;;;12.70;99.90;;;;;;5089170;28;20375;-49
2022/10/17 04:57:21;;;;;;;10.63;7.50;;;12.70;99.90;;;;;;5106390;28;20098;-47
2022/10/17 04:59:47;;;;;;;7.55;6.57;;;12.70;99.90;;;;;;5112501;28;20102;-48
2022/10/17 05:02:12;;;;;;;7.75;6.30;;;12.70;99.90;;;;;;5096102;28;20800;-48
2022/10/17 05:04:38;;;;;;;9.98;7.05;;;12.70;99.90;;;;;;5112033;28;20024;-46
2022/10/17 05:07:03;;;;;;;7.90;6.28;;;12.70;99.90;;;;;;5093889;28;20031;-46
2022/10/17 05:09:29;;;;;;;6.93;6.05;;;12.70;99.90;;;;;;5111570;28;20027;-46
2022/10/17 05:11:54;;;;;;;8.32;5.85;;;12.70;99.90;;;;;;5092302;28;20194;-47
2022/10/17 05:14:20;;;;;;;11.68;6.95;;;12.70;99.90;;;;;;5111584;28;20024;-49
2022/10/17 05:16:46;;;;;;;7.45;6.47;;;12.70;99.90;;;;;;5090688;28;20391;-49
2022/10/17 05:19:11;;;;;;;7.47;5.80;;;12.70;99.90;;;;;;5111702;28;20080;-46
2022/10/17 05:21:37;;;;;;;10.13;6.70;;;12.70;99.90;;;;;;5092353;28;20472;-52
2022/10/17 05:24:10;;;;;;;8.73;7.20;;;12.70;99.90;;;;;;5109866;28;20073;-51
2022/10/17 05:26:36;;;;;;;8.52;6.80;;;12.60;99.90;;;;;;5071378;28;20036;-48
2022/10/17 05:29:02;;;;;;;7.43;6.50;;;12.70;99.90;;;;;;5108981;28;20031;-49
2022/10/17 05:31:28;;;;;;;10.18;6.68;;;12.70;99.90;;;;;;5091948;28;20024;-53
2022/10/17 05:33:55;;;;;;;9.25;5.82;;;12.70;99.90;;;;;;5090538;28;20501;-51
2022/10/17 05:36:20;;;;;;;8.57;5.65;;;12.70;99.90;;;;;;5111005;28;20628;-49
2022/10/17 05:38:50;;;;;;;7.75;6.03;;;12.70;99.90;;;;;;5085341;28;20143;-48
2022/10/17 05:41:16;;;;;;;7.65;6.38;;;12.60;99.90;;;;;;5089360;28;20111;-47
2022/10/17 05:43:42;;;;;;;7.53;6.10;;;12.70;99.90;;;;;;5090886;28;20111;-47
2022/10/17 05:46:08;;;;;;;8.30;6.03;;;12.70;99.90;;;;;;5098927;28;20036;-49
2022/10/17 05:48:34;;;;;;;7.43;6.05;;;12.70;99.90;;;;;;5084405;28;20052;-50
2022/10/17 05:51:02;;;;;;;6.35;5.57;;;12.70;99.90;;;;;;5088314;28;20513;-50
2022/10/17 05:53:33;;;;;;;10.93;6.78;;;12.70;99.90;;;;;;5093185;28;20077;-47
2022/10/17 05:56:03;;;;;;;9.43;7.20;;;12.70;99.90;;;;;;5089678;28;20103;-49
2022/10/17 05:58:29;;;;;;;6.82;6.13;;;12.70;99.90;;;;;;5093371;28;20036;-56
2022/10/17 06:01:00;;;;;;;7.43;6.63;;;12.70;99.90;;;;;;5109305;28;20426;-57
2022/10/17 06:03:25;;;;;;;8.35;7.32;;;12.70;99.90;;;;;;5088015;28;20104;-56
2022/10/17 06:05:51;;;;;;;8.68;6.50;;;12.80;99.90;;;;;;5109450;28;20085;-58
2022/10/17 06:08:17;;;;;;;7.90;6.45;;;12.80;99.90;;;;;;5087133;28;20028;-56
2022/10/17 06:10:42;;;;;;;7.75;6.60;;;12.80;99.90;;;;;;5081124;28;20032;-55
2022/10/17 06:13:08;;;;;;;8.18;6.43;;;12.80;99.90;;;;;;5107184;28;20491;-52
2022/10/17 06:15:33;;;;;;;8.60;6.47;;;12.90;99.90;;;;;;5089460;28;20162;-56
2022/10/17 06:17:59;;;;;;;6.60;5.25;;;13.00;99.90;;;;;;5107088;28;20247;-57
2022/10/17 06:20:24;;;;;;;6.95;6.22;;;13.10;99.90;;;;;;5089930;28;20040;-55
2022/10/17 06:22:49;;;;;;;8.63;5.80;;;13.20;99.90;;;;;;5107170;28;20040;-56
2022/10/17 06:25:15;;;;;;;6.70;6.05;;;13.40;99.90;;;;;;5089646;28;20503;-53
2022/10/17 06:27:40;;;;;;;8.40;5.43;;;13.70;99.90;;;;;;5106591;28;20034;-55
2022/10/17 06:30:06;;;;;;;5.18;4.68;;;14.10;99.90;;;;;;5109425;28;20572;-54
2022/10/17 06:32:32;;;;;;;5.68;4.78;;;14.40;99.90;;;;;;5093084;28;20031;-55
2022/10/17 06:34:57;;;;;;;6.15;4.68;;;14.60;99.90;;;;;;5109757;28;20084;-56
2022/10/17 06:37:23;;;;;;;5.40;4.78;;;14.80;99.90;;;;;;5090782;28;20392;-55
2022/10/17 06:39:48;;;;;;;5.22;4.40;;;15.10;99.90;;;;;;5089992;28;20028;-50
2022/10/17 06:42:14;;;;;;;5.80;4.47;;;15.30;99.90;;;;;;5107397;28;20487;-56
2022/10/17 06:44:40;;;;;;;8.68;5.10;;;15.40;99.90;;;;;;5110467;28;20031;-55
2022/10/17 06:47:05;;;;;;;6.70;5.20;;;15.50;99.90;;;;;;5090726;28;20031;-51
2022/10/17 06:49:33;;;;;;;5.35;4.57;;;15.70;99.90;;;;;;5089827;28;20036;-54
2022/10/17 06:51:59;;;;;;;5.32;4.43;;;15.60;99.90;;;;;;5107853;28;20024;-54
2022/10/17 06:54:24;;;;;;;4.85;4.35;;;15.70;99.90;;;;;;5110274;28;20482;-54
2022/10/17 06:56:50;;;;;;;7.55;5.25;;;15.70;99.90;;;;;;5090029;28;20060;-57
2022/10/17 06:59:15;;;;;;;6.13;4.93;;;15.60;99.90;;;;;;5087861;28;20059;-54
2022/10/17 07:01:41;;;;;;;5.03;4.07;;;15.60;99.90;;;;;;5109044;28;20130;-55
2022/10/17 07:04:07;;;;;;;8.60;4.63;;;15.60;99.90;;;;;;5088286;28;20028;-52
2022/10/17 07:06:33;;;;;;;5.75;4.60;;;15.60;99.90;;;;;;5108933;28;20038;-55
2022/10/17 07:08:59;;;;;;;6.93;5.00;;;15.60;99.90;;;;;;5088089;28;20032;-55
2022/10/17 07:11:25;;;;;;;8.98;4.75;;;15.60;99.90;;;;;;5109141;28;20027;-53
2022/10/17 07:13:50;;;;;;;7.07;5.15;;;15.70;99.90;;;;;;5088334;28;20035;-51
2022/10/17 07:16:16;;;;;;;9.20;4.68;;;15.70;99.90;;;;;;5109157;28;20040;-54
2022/10/17 07:18:42;;;;;;;7.22;5.07;;;15.80;99.90;;;;;;5087756;28;20055;-52
2022/10/17 07:21:08;;;;;;;10.20;5.47;;;15.90;99.90;;;;;;5108214;28;20058;-53
2022/10/17 07:23:37;;;;;;;7.07;5.05;;;15.90;99.90;;;;;;5087840;28;20531;-54
2022/10/17 07:26:06;;;;;;;6.00;4.13;;;16.00;99.90;;;;;;5109296;28;20031;-54
2022/10/17 07:28:33;;;;;;;6.20;4.75;;;16.10;99.90;;;;;;5086065;28;20126;-55
2022/10/17 07:31:11;;;;;;;5.22;4.43;;;16.30;99.90;;;;;;5108994;28;20047;-53
2022/10/17 07:33:36;;;;;;;7.07;4.65;;;16.60;99.90;;;;;;5079674;28;20429;-55
2022/10/17 07:36:04;;;;;;;4.65;4.15;;;16.80;99.90;;;;;;5108668;28;20077;-54
2022/10/17 07:38:30;;;;;;;5.40;4.18;;;17.00;99.90;;;;;;5087213;28;20156;-54
2022/10/17 07:40:57;;;;;;;6.57;4.68;;;17.20;99.90;;;;;;5107414;28;20055;-55
2022/10/17 07:43:24;;;;;;;4.70;3.63;;;17.40;99.90;;;;;;5097869;28;20031;-55
2022/10/17 07:45:50;;;;;;;4.95;4.10;;;17.50;99.90;;;;;;5089021;28;20036;-55
2022/10/17 07:48:17;;;;;;;5.93;4.72;;;17.60;99.90;;;;;;5100137;28;20031;-53
2022/10/17 07:50:42;;;;;;;6.70;4.90;;;17.70;99.90;;;;;;5089182;28;20220;-52
2022/10/17 07:53:08;;;;;;;6.65;4.30;;;17.80;99.90;;;;;;5106440;28;20076;-52
2022/10/17 07:55:35;;;;;;;7.90;4.20;;;18.00;99.90;;;;;;5089279;28;20028;-53
2022/10/17 07:58:01;;;;;;;6.68;4.30;;;18.10;99.90;;;;;;5106627;28;20025;-52
2022/10/17 08:00:26;;;;;;;7.13;4.18;;;18.20;99.90;;;;;;5108936;28;20035;-53
2022/10/17 08:02:52;;;;;;;6.22;3.92;;;18.40;99.90;;;;;;5092972;28;20084;-53
2022/10/17 08:05:17;;;;;;;4.60;3.88;;;18.50;99.90;;;;;;5109142;28;20050;-51
2022/10/17 08:07:43;;;;;;;5.65;4.00;;;18.70;99.90;;;;;;5091373;28;20161;-54
2022/10/17 08:10:11;;;;;;;5.30;3.85;;;18.90;99.90;;;;;;5109020;28;20030;-54
2022/10/17 08:12:37;;;;;;;5.18;3.50;;;19.10;99.90;;;;;;5090009;28;20043;-52
2022/10/17 08:15:04;;;;;;;5.10;3.88;;;19.30;99.90;;;;;;5109059;28;20471;-54
2022/10/17 08:17:29;;;;;;;6.65;3.67;;;19.50;99.90;;;;;;5089144;28;20166;-56
2022/10/17 08:19:55;;;;;;;5.60;3.70;;;19.70;99.90;;;;;;5108871;28;20110;-53
2022/10/17 08:22:21;;;;;;;4.43;4.00;;;19.90;99.90;;;;;;5087834;28;20062;-54
2022/10/17 08:24:46;;;;;;;5.28;4.35;;;20.00;99.90;;;;;;5108903;28;20157;-56
2022/10/17 08:27:12;;;;;;;6.25;3.72;;;20.10;99.90;;;;;;5089104;28;20024;-53
2022/10/17 08:29:42;;;;;;;4.18;3.78;;;20.20;99.90;;;;;;5106412;28;20031;-56
2022/10/17 08:32:08;;;;;;;4.30;3.50;;;20.40;99.90;;;;;;5090425;28;20024;-55
2022/10/17 08:34:34;;;;;;;9.05;3.53;;;20.40;99.90;;;;;;5091162;28;20415;-52
2022/10/17 08:36:59;;;;;;;4.68;3.20;;;20.50;99.90;;;;;;5108414;28;20032;-55
2022/10/17 08:39:25;;;;;;;9.25;4.60;;;20.60;99.90;;;;;;5090480;28;20109;-55
2022/10/17 08:42:32;;;;;;;4.70;3.30;;;20.60;99.90;;;;;;5112116;28;20106;-56
2022/10/17 08:45:31;;;;;;;3.92;3.28;;;20.70;99.90;;;;;;5072045;28;20511;-49
2022/10/17 08:47:59;;;;;;;5.47;4.05;;;20.90;99.90;;;;;;5092024;28;20032;-51
2022/10/17 08:50:34;;;;;;;4.95;3.78;;;20.90;99.90;;;;;;5112542;28;20115;-53
2022/10/17 08:53:05;;;;;;;3.63;3.00;;;20.90;96.80;;;;;;5080790;28;20099;-56
2022/10/17 08:55:37;;;;;;;5.68;3.72;;;21.00;99.90;;;;;;5112678;28;20028;-50
2022/10/17 08:58:09;;;;;;;6.63;3.30;;;21.00;99.90;;;;;;5080880;28;20051;-52
2022/10/17 09:00:35;;;;;;;3.70;3.28;;;21.10;99.90;;;;;;5112222;28;20036;-53
2022/10/17 09:03:09;;;;;;;5.15;3.60;;;21.30;99.90;;;;;;5095918;28;20038;-55
2022/10/17 09:05:51;;;;;;;4.88;3.20;;;21.50;98.90;;;;;;5112252;27;20057;-53
2022/10/17 09:08:48;;;;;;;4.20;3.30;;;21.60;98.30;;;;;;5084377;28;20059;-54
2022/10/17 09:11:19;;;;;;;7.22;3.22;;;21.70;99.40;;;;;;5112249;28;20023;-56
2022/10/17 09:14:17;;;;;;;3.92;3.30;;;21.80;98.00;;;;;;5091400;28;20380;-52
2022/10/17 09:16:53;;;;;;;6.28;3.30;;;21.90;95.20;;;;;;5098567;28;20081;-55
2022/10/17 09:19:24;;;;;;;4.47;3.45;;;22.00;96.70;;;;;;5085107;28;20028;-56
2022/10/17 09:22:01;;;;;;;4.65;3.17;;;22.00;98.20;;;;;;5071535;28;20020;-52
2022/10/17 09:24:48;;;;;;;3.70;2.60;;;22.20;96.30;;;;;;5086216;28;20035;-54
2022/10/17 09:27:21;;;;;;;5.07;3.22;;;22.20;92.70;;;;;;5071162;28;20078;-50
2022/10/17 09:29:49;;;;;;;3.08;2.78;;;22.30;94.50;;;;;;5090337;28;20100;-56
2022/10/17 09:32:19;;;;;;;3.88;3.38;;;22.40;93.70;;;;;;5111484;28;20020;-54
2022/10/17 09:34:45;;;;;;;5.55;3.70;;;22.40;86.60;;;;;;5088167;28;20047;-53
2022/10/17 09:37:13;;;;;;;3.78;3.17;;;22.40;90.40;;;;;;5105806;28;20032;-55
2022/10/17 09:39:40;;;;;;;5.43;3.33;;;22.40;90.20;;;;;;5089340;28;20046;-54
2022/10/17 09:42:11;;;;;;;4.63;3.33;;;22.40;89.60;;;;;;5111110;28;20031;-52
2022/10/17 09:44:48;;;;;;;5.43;3.65;;;22.30;83.30;;;;;;5086137;28;20528;-55
2022/10/17 09:47:24;;;;;;;5.18;3.25;;;22.30;86.80;;;;;;5081102;28;20031;-47
2022/10/17 09:49:50;;;;;;;3.40;3.10;;;22.30;88.70;;;;;;5088220;28;20533;-48
2022/10/17 09:52:24;;;;;;;5.70;3.25;;;22.30;89.60;;;;;;5110619;28;20130;-47
2022/10/17 09:54:54;;;;;;;4.88;3.67;;;22.40;83.10;;;;;;5087924;28;20109;-47
2022/10/17 09:57:21;;;;;;;4.00;3.30;;;22.30;87.30;;;;;;5111373;28;20110;-49
2022/10/17 10:00:03;;;;;;;4.03;3.35;;;22.30;85.10;;;;;;5089181;28;20032;-54
2022/10/17 10:02:30;;;;;;;3.85;3.25;;;22.30;86.80;;;;;;5070613;28;20128;-56
2022/10/17 10:05:03;;;;;;;4.57;3.20;;;22.30;85.00;;;;;;5088835;28;20028;-54
2022/10/17 10:07:31;;;;;;;5.60;3.85;;;22.30;86.30;;;;;;5070815;28;20029;-55
2022/10/17 10:09:58;;;;;;;5.72;3.85;;;22.30;84.90;;;;;;5088870;28;20377;-53
2022/10/17 10:12:31;;;;;;;4.45;3.65;;;22.20;81.30;;;;;;5110372;28;20055;-53
2022/10/17 10:14:57;;;;;;;4.50;3.38;;;22.20;83.30;;;;;;5087907;28;20035;-55
2022/10/17 10:17:28;;;;;;;3.97;3.40;;;22.20;84.70;;;;;;5108764;28;20027;-57
2022/10/17 10:19:53;;;;;;;3.40;3.10;;;22.10;84.70;;;;;;5088768;28;20039;-56
2022/10/17 10:22:22;;;;;;;3.70;3.00;;;22.10;85.90;;;;;;5110019;28;20028;-55
2022/10/17 10:25:15;;;;;;;5.50;4.00;;;22.10;84.10;;;;;;5088591;28;20016;-54
2022/10/17 10:27:45;;;;;;;5.47;3.55;;;22.10;80.40;;;;;;5068463;28;20112;-55
2022/10/17 10:30:22;;;;;;;4.30;3.33;;;22.00;82.20;;;;;;5070150;28;20078;-53
2022/10/17 10:32:48;;;;;;;4.22;3.70;;;22.10;83.50;;;;;;5069633;28;20032;-53
2022/10/17 10:35:27;;;;;;;3.80;3.40;;;22.10;84.50;;;;;;5110716;28;20020;-56
2022/10/17 10:37:56;;;;;;;3.67;3.30;;;22.20;82.70;;;;;;5089138;28;20051;-53
2022/10/17 10:40:54;;;;;;;4.05;3.50;;;22.20;82.70;;;;;;5110599;28;20461;-54
2022/10/17 10:43:28;;;;;;;4.13;3.60;;;22.20;79.60;;;;;;5085283;28;20484;-54
2022/10/17 10:45:54;;;;;;;4.60;3.55;;;22.30;82.80;;;;;;5109180;28;20061;-53
2022/10/17 10:48:21;;;;;;;4.95;3.10;;;22.30;81.60;;;;;;5086973;28;20055;-56
2022/10/17 10:50:56;;;;;;;5.80;3.67;;;22.40;82.00;;;;;;5110448;28;20023;-54
2022/10/17 10:53:40;;;;;;;4.82;3.72;;;22.50;82.20;;;;;;5075932;28;20039;-55
2022/10/17 10:56:19;;;;;;;4.95;2.78;;;22.50;81.20;;;;;;5077589;28;20233;-52
2022/10/17 10:59:02;;;;;;;6.10;3.53;;;22.60;81.90;;;;;;5092509;28;20096;-55
2022/10/17 11:01:37;;;;;;;3.55;3.25;;;22.70;77.30;;;;;;5083671;28;20106;-56
2022/10/17 11:04:29;;;;;;;5.78;3.13;;;22.80;79.50;;;;;;5087246;28;20583;-56
2022/10/17 11:07:23;;;;;;;5.72;3.78;;;22.90;77.60;;;;;;5067809;28;20107;-57
2022/10/17 11:10:12;;;;;;;5.95;3.42;;;22.90;76.20;;;;;;5085973;28;20044;-52
2022/10/17 11:12:52;;;;;;;5.18;3.60;;;22.90;76.60;;;;;;5079305;28;20119;-55
2022/10/17 11:15:33;;;;;;;3.20;2.88;;;22.90;76.80;;;;;;5079616;28;20067;-52
2022/10/17 11:18:06;;;;;;;4.60;3.45;;;22.90;71.90;;;;;;5079719;28;20028;-52
2022/10/17 11:20:51;;;;;;;5.25;2.90;;;22.90;75.50;;;;;;5070674;28;20070;-53
2022/10/17 11:23:28;;;;;;;5.18;3.50;;;22.80;76.80;;;;;;5081056;28;20019;-53
2022/10/17 11:25:57;;;;;;;6.28;3.70;;;22.80;75.50;;;;;;5091431;28;20023;-47
2022/10/17 11:28:24;;;;;;;3.65;2.95;;;22.80;77.00;;;;;;5082669;28;20027;-45
2022/10/17 11:31:06;;;;;;;5.20;3.38;;;22.80;77.20;;;;;;5084018;28;20086;-44
2022/10/17 11:33:51;;;;;;;4.47;4.07;;;22.80;76.50;;;;;;5106075;28;20027;-44
2022/10/17 11:36:20;;;;;;;5.75;3.55;;;22.70;76.00;;;;;;5102343;28;20024;-46
2022/10/17 11:39:04;;;;;;;6.35;3.60;;;22.80;75.50;;;;;;5092739;28;20048;-48
2022/10/17 11:41:47;;;;;;;6.47;3.70;;;22.80;75.10;;;;;;5068080;28;20029;-45
2022/10/17 11:44:35;;;;;;;4.28;3.63;;;22.80;75.50;;;;;;5087190;28;20108;-44
2022/10/17 11:47:13;;;;;;;4.82;3.55;;;22.80;72.80;;;;;;5074554;28;20033;-44
2022/10/17 11:49:52;;;;;;;7.05;4.07;;;22.80;72.70;;;;;;5085721;28;20548;-46
2022/10/17 11:52:23;;;;;;;6.95;4.45;;;22.70;73.40;;;;;;5067626;28;20028;-47
2022/10/17 11:54:53;;;;;;;5.82;3.88;;;22.80;75.10;;;;;;5081073;28;20072;-46
2022/10/17 11:57:44;;;;;;;5.95;4.32;;;22.80;74.20;;;;;;5067752;28;20067;-47
2022/10/17 12:00:48;;;;;;;3.78;3.45;;;22.80;73.00;;;;;;5084066;28;20120;-45
2022/10/17 12:03:49;;;;;;;5.53;3.97;;;22.80;73.50;;;;;;5105449;28;20039;-49
2022/10/17 12:06:52;;;;;;;4.30;3.90;;;22.80;72.60;;;;;;5108187;28;20511;-49
2022/10/17 12:09:39;;;;;;;5.68;4.38;;;22.90;72.80;;;;;;5101328;28;20092;-46
2022/10/17 12:12:05;;;;;;;8.48;4.18;;;22.90;74.10;;;;;;5092509;28;20031;-47
2022/10/17 12:14:36;;;;;;;6.88;4.50;;;22.90;73.90;;;;;;5097075;28;20028;-44
2022/10/17 12:17:04;;;;;;;4.80;4.32;;;23.00;73.00;;;;;;5111966;28;20028;-44
2022/10/17 12:19:35;;;;;;;6.68;4.45;;;23.00;73.90;;;;;;5089678;28;20053;-46
2022/10/17 12:22:04;;;;;;;6.10;4.88;;;23.00;73.60;;;;;;5071660;28;20028;-44
2022/10/17 12:24:34;;;;;;;5.65;4.00;;;23.00;74.30;;;;;;5097613;28;20028;-44
2022/10/17 12:27:21;;;;;;;7.57;4.78;;;23.00;74.30;;;;;;5111814;28;20499;-44
2022/10/17 12:29:47;;;;;;;5.30;4.80;;;23.10;72.90;;;;;;5090203;28;20035;-46
2022/10/17 12:32:13;;;;;;;5.70;4.78;;;23.10;72.50;;;;;;5094084;28;20386;-44
2022/10/17 12:34:49;;;;;;;6.45;4.80;;;23.20;73.00;;;;;;5096145;28;20035;-44
2022/10/17 12:37:34;;;;;;;6.32;5.18;;;23.20;73.80;;;;;;5081492;28;20044;-44
2022/10/17 12:40:00;;;;;;;6.27;3.90;;;23.30;73.60;;;;;;5093199;28;20549;-46
2022/10/17 12:42:30;;;;;;;4.38;3.80;;;23.50;72.70;;;;;;5110613;28;20027;-43
2022/10/17 12:44:56;;;;;;;5.22;4.30;;;23.60;72.80;;;;;;5089631;28;20484;-45
2022/10/17 12:47:35;;;;;;;6.07;4.50;;;23.70;72.10;;;;;;5098339;28;20036;-48
2022/10/17 12:50:00;;;;;;;5.72;4.90;;;23.70;71.10;;;;;;5085086;28;20062;-47
2022/10/17 12:52:57;;;;;;;7.00;5.00;;;23.80;71.20;;;;;;5111093;28;20059;-48
2022/10/17 12:55:23;;;;;;;;;;;23.80;65.80;;;;;;5087216;28;20140;-51
2022/10/17 12:58:11;;;;;;;6.90;5.10;;;23.70;65.90;;;;;;5109700;28;19908;-47
2022/10/17 13:00:48;;;;;;;7.13;5.03;;;23.70;66.30;;;;;;5077143;28;20564;-46
2022/10/17 13:03:17;;;;;;;10.18;5.88;;;23.60;66.30;;;;;;5069536;28;20401;-51
2022/10/17 13:05:48;;;;;;;6.93;4.97;;;23.60;66.30;;;;;;5111509;28;20731;-46
2022/10/17 13:08:19;;;;;;;5.80;4.72;;;23.60;65.50;;;;;;5069036;28;20028;-51
2022/10/17 13:10:48;;;;;;;4.80;4.07;;;23.50;65.90;;;;;;5111616;28;20424;-46